createdAt,value
2019-04-03T00:04:19.691Z,2.30
2019-04-03T00:09:13.184Z,2.47
2019-04-03T00:14:06.759Z,2.43
2019-04-03T00:19:00.185Z,2.10
2019-04-03T00:23:53.842Z,2.00
2019-04-03T00:28:47.243Z,1.60
2019-04-03T00:33:40.890Z,1.70
2019-04-03T00:38:34.611Z,1.53
2019-04-03T00:43:28.285Z,1.60
2019-04-03T00:48:21.695Z,1.53
2019-04-03T00:53:15.975Z,1.60
2019-04-03T00:58:27.616Z,1.80
2019-04-03T01:03:20.904Z,2.03
2019-04-03T01:08:14.584Z,1.57
2019-04-03T01:13:08.508Z,1.60
2019-04-03T01:18:04.310Z,1.10
2019-04-03T01:22:55.750Z,1.60
2019-04-03T01:27:49.147Z,1.27
2019-04-03T01:32:42.646Z,1.37
2019-04-03T01:37:36.051Z,1.00
2019-04-03T01:42:29.723Z,0.97
2019-04-03T01:47:23.208Z,1.00
2019-04-03T01:52:16.930Z,1.20
2019-04-03T01:57:10.189Z,1.20
2019-04-03T02:02:03.594Z,1.13
2019-04-03T02:06:56.984Z,1.07
2019-04-03T02:11:50.586Z,1.63
2019-04-03T02:16:43.979Z,1.63
2019-04-03T02:21:37.650Z,1.53
2019-04-03T02:26:32.657Z,1.50
2019-04-03T02:31:24.729Z,1.80
2019-04-03T02:36:18.274Z,1.40
2019-04-03T02:41:11.571Z,1.63
2019-04-03T02:46:04.986Z,1.83
2019-04-03T02:50:58.887Z,1.60
2019-04-03T02:55:52.285Z,2.20
2019-04-03T03:00:45.917Z,2.27
2019-04-03T03:05:39.319Z,2.37
2019-04-03T03:10:32.717Z,2.00
2019-04-03T03:15:26.113Z,2.37
2019-04-03T03:20:19.987Z,2.30
2019-04-03T03:25:13.702Z,2.60
2019-04-03T03:30:30.322Z,2.37
2019-04-03T03:35:09.811Z,2.20
2019-04-03T03:39:53.600Z,2.60
2019-04-03T03:44:47.179Z,2.83
2019-04-03T03:49:40.381Z,3.07
2019-04-03T03:54:34.026Z,3.80
2019-04-03T03:59:27.894Z,3.93
2019-04-03T04:04:21.479Z,3.33
2019-04-03T04:09:17.110Z,4.20
2019-04-03T04:14:08.467Z,4.00
2019-04-03T04:19:02.190Z,4.30
2019-04-03T04:23:56.852Z,4.53
2019-04-03T04:28:51.855Z,5.50
2019-04-03T04:33:45.783Z,7.23
2019-04-03T04:38:38.803Z,6.87
2019-04-03T04:43:32.452Z,8.43
2019-04-03T04:48:25.809Z,7.43
2019-04-03T04:53:20.058Z,7.97
2019-04-03T04:58:13.186Z,8.20
2019-04-03T05:03:06.616Z,6.20
2019-04-03T05:08:01.899Z,5.90
2019-04-03T05:12:53.837Z,5.27
2019-04-03T05:17:47.066Z,4.43
2019-04-03T05:22:40.446Z,4.00
2019-04-03T05:27:34.683Z,4.13
2019-04-03T05:32:27.438Z,3.47
2019-04-03T05:37:20.906Z,3.97
2019-04-03T05:42:14.582Z,4.10
2019-04-03T05:47:08.573Z,2.62
2019-04-03T05:52:03.532Z,2.63
2019-04-03T05:56:54.728Z,2.37
2019-04-03T06:01:48.486Z,2.23
2019-04-03T06:06:41.739Z,1.63
2019-04-03T06:11:35.406Z,1.83
2019-04-03T06:16:28.799Z,1.50
2019-04-03T06:21:22.218Z,1.67
2019-04-03T06:26:15.617Z,1.60
2019-04-03T06:31:09.077Z,1.50
2019-04-03T06:36:02.454Z,1.40
2019-04-03T06:40:56.138Z,1.80
2019-04-03T06:45:49.456Z,1.50
2019-04-03T06:50:43.048Z,1.13
2019-04-03T06:55:36.603Z,1.33
2019-04-03T07:00:30.235Z,1.43
2019-04-03T07:05:23.507Z,1.30
2019-04-03T07:10:25.309Z,1.23
2019-04-03T07:15:10.349Z,1.13
2019-04-03T07:20:13.697Z,2.90
2019-04-03T07:24:57.719Z,5.00
2019-04-03T07:29:51.734Z,5.20
2019-04-03T07:34:45.012Z,5.23
2019-04-03T07:39:38.430Z,4.30
2019-04-03T07:44:32.054Z,5.40
2019-04-03T07:49:25.649Z,5.40
2019-04-03T07:54:21.321Z,5.00
2019-04-03T07:59:12.837Z,4.57
2019-04-03T08:04:06.552Z,4.53
2019-04-03T08:09:07.882Z,5.00
2019-04-03T08:13:53.540Z,5.53
2019-04-03T08:18:46.983Z,5.33
2019-04-03T08:23:40.637Z,4.53
2019-04-03T08:28:34.357Z,4.87
2019-04-03T08:33:28.213Z,4.30
2019-04-03T08:38:21.107Z,4.23
2019-04-03T08:43:14.753Z,3.53
2019-04-03T08:48:08.190Z,3.90
2019-04-03T08:53:01.809Z,3.23
2019-04-03T08:57:55.261Z,3.20
2019-04-03T09:02:49.113Z,2.83
2019-04-03T09:07:42.277Z,2.60
2019-04-03T09:12:38.433Z,2.30
2019-04-03T09:17:30.023Z,2.40
2019-04-03T09:22:23.330Z,2.80
2019-04-03T09:27:16.735Z,2.30
2019-04-03T09:32:10.452Z,2.20
2019-04-03T09:37:05.732Z,2.53
2019-04-03T09:41:57.446Z,2.40
2019-04-03T09:46:50.843Z,2.90
2019-04-03T09:51:44.522Z,2.17
2019-04-03T09:56:54.484Z,2.07
2019-04-03T10:01:31.728Z,2.20
2019-04-03T10:06:25.255Z,2.27
2019-04-03T10:11:20.463Z,2.20
2019-04-03T10:16:12.115Z,2.73
2019-04-03T10:21:05.729Z,2.63
2019-04-03T10:25:59.157Z,3.17
2019-04-03T10:30:53.667Z,2.67
2019-04-03T10:35:47.439Z,2.93
2019-04-03T10:40:39.895Z,3.67
2019-04-03T10:45:33.235Z,3.23
2019-04-03T10:50:26.904Z,3.90
2019-04-03T10:55:20.304Z,3.50
2019-04-03T11:00:13.694Z,2.83
2019-04-03T11:05:07.182Z,2.00
2019-04-03T11:10:01.082Z,1.73
2019-04-03T11:14:54.140Z,1.90
2019-04-03T11:19:47.587Z,1.60
2019-04-03T11:24:42.525Z,1.70
2019-04-03T11:29:34.583Z,1.40
2019-04-03T11:34:28.300Z,1.90
2019-04-03T11:39:22.006Z,1.40
2019-04-03T11:44:15.314Z,1.57
2019-04-03T11:49:08.929Z,1.50
2019-04-03T11:54:02.425Z,1.37
2019-04-03T11:58:55.777Z,1.20
2019-04-03T12:03:51.489Z,1.10
2019-04-03T12:08:44.715Z,1.03
2019-04-03T12:13:36.557Z,0.93
2019-04-03T12:18:33.169Z,1.23
2019-04-03T12:23:24.415Z,0.90
2019-04-03T12:28:18.428Z,1.03
2019-04-03T12:33:11.134Z,1.30
2019-04-03T12:38:04.149Z,1.00
2019-04-03T12:42:57.534Z,1.03
2019-04-03T12:47:51.021Z,1.00
2019-04-03T12:52:45.040Z,1.03
2019-04-03T12:57:39.150Z,1.20
2019-04-03T13:02:31.544Z,1.27
2019-04-03T13:07:25.041Z,1.10
2019-04-03T13:12:20.363Z,1.10
2019-04-03T13:17:13.505Z,1.00
2019-04-03T13:22:05.032Z,0.77
2019-04-03T13:26:59.324Z,1.20
2019-04-03T13:31:51.822Z,0.80
2019-04-03T13:36:45.241Z,0.80
2019-04-03T13:41:39.971Z,0.77
2019-04-03T13:46:32.573Z,0.93
2019-04-03T13:51:26.672Z,0.90
2019-04-03T13:56:19.328Z,0.87
2019-04-03T14:01:13.717Z,0.70
2019-04-03T14:06:06.977Z,1.07
2019-04-03T14:11:00.693Z,0.73
2019-04-03T14:15:55.744Z,0.90
2019-04-03T14:20:50.377Z,0.90
2019-04-03T14:25:41.181Z,1.00
2019-04-03T14:30:34.633Z,1.10
2019-04-03T14:35:50.381Z,0.80
2019-04-03T14:40:21.568Z,0.97
2019-04-03T14:45:15.302Z,0.97
2019-04-03T14:50:08.393Z,0.80
2019-04-03T14:55:15.365Z,1.20
2019-04-03T14:59:55.436Z,0.90
2019-04-03T15:04:48.924Z,1.00
2019-04-03T15:09:42.186Z,1.10
2019-04-03T15:14:35.832Z,1.10
2019-04-03T15:19:30.620Z,1.37
2019-04-03T15:24:22.892Z,1.30
2019-04-03T15:29:16.315Z,1.13
2019-04-03T15:34:09.770Z,1.20
2019-04-03T15:39:03.729Z,1.47
2019-04-03T15:43:57.375Z,1.20
2019-04-03T15:48:51.013Z,1.27
2019-04-03T15:53:44.771Z,1.00
2019-04-03T15:58:37.747Z,1.00
2019-04-03T16:03:31.623Z,1.13
2019-04-03T16:08:24.593Z,1.30
2019-04-03T16:13:21.170Z,1.07
2019-04-03T16:18:11.622Z,1.60
2019-04-03T16:23:05.119Z,0.87
2019-04-03T16:28:00.772Z,0.97
2019-04-03T16:32:52.059Z,1.57
2019-04-03T16:37:45.443Z,1.00
2019-04-03T16:42:39.379Z,0.90
2019-04-03T16:47:32.395Z,1.07
2019-04-03T16:52:25.891Z,1.30
2019-04-03T16:57:22.572Z,1.17
2019-04-03T17:02:13.258Z,1.10
2019-04-03T17:07:06.463Z,1.10
2019-04-03T17:11:59.887Z,0.93
2019-04-03T17:16:53.306Z,1.20
2019-04-03T17:21:46.891Z,1.53
2019-04-03T17:26:49.742Z,1.03
2019-04-03T17:31:34.161Z,1.30
2019-04-03T17:36:27.182Z,1.10
2019-04-03T17:41:20.901Z,1.10
2019-04-03T17:46:17.390Z,0.90
2019-04-03T17:51:08.642Z,1.10
2019-04-03T17:56:02.198Z,1.10
2019-04-03T18:00:55.936Z,0.90
2019-04-03T18:05:49.907Z,1.23
2019-04-03T18:10:43.387Z,0.90
2019-04-03T18:15:37.400Z,0.90
2019-04-03T18:20:30.812Z,0.90
2019-04-03T18:25:24.784Z,0.90
2019-04-03T18:30:18.225Z,0.83
2019-04-03T18:35:12.556Z,0.87
2019-04-03T18:40:06.490Z,1.10
2019-04-03T18:45:00.056Z,1.07
2019-04-03T18:49:55.487Z,0.90
2019-04-03T18:54:52.585Z,1.00
2019-04-03T18:59:46.198Z,1.00
2019-04-03T19:04:40.099Z,1.00
2019-04-03T19:09:33.670Z,1.00
2019-04-03T19:14:31.379Z,1.20
2019-04-03T19:19:23.669Z,1.10
2019-04-03T19:24:15.354Z,1.20
2019-04-03T19:29:09.442Z,1.40
2019-04-03T19:34:03.984Z,1.47
2019-04-03T19:38:58.270Z,1.23
2019-04-03T19:43:52.024Z,1.40
2019-04-03T19:48:45.955Z,1.20
2019-04-03T19:53:39.877Z,1.20
2019-04-03T19:58:33.992Z,1.20
2019-04-03T20:03:27.608Z,1.20
2019-04-03T20:08:21.005Z,1.20
2019-04-03T20:13:14.563Z,1.30
2019-04-03T20:18:07.977Z,1.33
2019-04-03T20:23:01.456Z,1.30
2019-04-03T20:27:56.949Z,1.10
2019-04-03T20:32:49.287Z,1.37
2019-04-03T20:37:44.067Z,1.20
2019-04-03T20:42:36.181Z,1.10
2019-04-03T20:47:29.644Z,1.57
2019-04-03T20:52:23.069Z,1.20
2019-04-03T20:57:16.464Z,1.20
2019-04-03T21:02:09.885Z,1.10
2019-04-03T21:07:03.228Z,1.00
2019-04-03T21:11:56.771Z,1.27
2019-04-03T21:16:50.164Z,2.20
2019-04-03T21:21:43.569Z,2.70
2019-04-03T21:26:38.279Z,3.37
2019-04-03T21:31:30.597Z,3.23
2019-04-03T21:36:23.998Z,3.20
2019-04-03T21:41:20.505Z,3.37
2019-04-03T21:46:10.822Z,4.70
2019-04-03T21:51:04.246Z,4.50
2019-04-03T21:55:57.703Z,5.03
2019-04-03T22:01:16.990Z,3.50
2019-04-03T22:06:10.391Z,2.50
2019-04-03T22:11:04.576Z,1.63
2019-04-03T22:15:57.169Z,1.50
2019-04-03T22:20:50.812Z,1.60
2019-04-03T22:25:44.178Z,1.80
2019-04-03T22:30:37.538Z,1.57
2019-04-03T22:35:32.268Z,1.40
2019-04-03T22:40:24.285Z,1.50
2019-04-03T22:45:18.052Z,3.03
2019-04-03T22:50:11.018Z,3.60
2019-04-03T22:55:04.422Z,3.73
2019-04-03T22:59:57.789Z,3.77
2019-04-03T23:04:51.215Z,3.80
2019-04-03T23:09:44.579Z,3.90
2019-04-03T23:14:38.379Z,3.50
2019-04-03T23:19:32.479Z,3.30
2019-04-03T23:24:25.041Z,3.63
2019-04-03T23:29:18.401Z,2.97
2019-04-03T23:34:11.787Z,3.00
2019-04-03T23:39:06.581Z,3.27
2019-04-03T23:43:59.950Z,3.33
2019-04-03T23:48:53.318Z,2.90
2019-04-03T23:53:46.851Z,3.33
2019-04-03T23:58:41.902Z,3.60
